createdAt,value
2016-10-31T00:01:51.436Z,9.69
2016-10-31T00:05:28.068Z,9.82
2016-10-31T00:09:05.394Z,9.91
2016-10-31T00:12:41.857Z,10.03
2016-10-31T00:16:18.822Z,10.09
2016-10-31T00:19:56.226Z,10.15
2016-10-31T00:23:32.708Z,10.12
2016-10-31T00:27:09.931Z,10.05
2016-10-31T00:30:46.975Z,10.15
2016-10-31T00:34:24.281Z,10.24
2016-10-31T00:38:00.942Z,10.31
2016-10-31T00:41:38.614Z,10.35
2016-10-31T00:45:15.062Z,10.37
2016-10-31T00:48:52.362Z,10.28
2016-10-31T00:52:29.094Z,10.24
2016-10-31T00:56:05.901Z,10.26
2016-10-31T00:59:42.874Z,10.27
2016-10-31T01:03:20.168Z,10.22
2016-10-31T01:06:57.155Z,10.13
2016-10-31T01:10:34.092Z,10.06
2016-10-31T01:14:11.300Z,9.99
2016-10-31T01:17:47.899Z,9.94
2016-10-31T01:21:36.166Z,9.95
2016-10-31T01:25:12.247Z,9.93
2016-10-31T01:28:48.252Z,9.9
2016-10-31T01:32:24.343Z,9.84
2016-10-31T01:36:00.471Z,9.69
2016-10-31T01:39:36.775Z,9.69
2016-10-31T01:43:19.076Z,9.69
2016-10-31T01:46:54.902Z,9.69
2016-10-31T01:50:31.642Z,9.64
2016-10-31T01:54:09.577Z,9.42
2016-10-31T01:57:45.154Z,9.17
2016-10-31T02:01:21.625Z,9.08
2016-10-31T02:04:58.916Z,9.11
2016-10-31T02:08:35.940Z,9.18
2016-10-31T02:16:53.311Z,9.19
2016-10-31T02:20:29.806Z,9.16
2016-10-31T02:24:05.558Z,9.25
2016-10-31T02:27:21.870Z,9.39
2016-10-31T02:31:22.789Z,9.4
2016-10-31T02:34:59.422Z,9.52
2016-10-31T02:38:36.732Z,9.57
2016-10-31T02:42:12.835Z,9.69
2016-10-31T02:45:50.192Z,9.78
2016-10-31T02:49:26.851Z,9.83
2016-10-31T02:53:03.824Z,9.85
2016-10-31T02:56:40.558Z,9.8
2016-10-31T03:00:18.053Z,9.86
2016-10-31T03:03:54.828Z,9.94
2016-10-31T03:07:32.003Z,10.04
2016-10-31T03:11:08.701Z,10.12
2016-10-31T03:14:45.629Z,10.2
2016-10-31T03:18:23.219Z,10.28
2016-10-31T03:21:59.640Z,10.34
2016-10-31T03:25:37.101Z,10.32
2016-10-31T03:29:13.579Z,10.29
2016-10-31T03:32:51.136Z,10.22
2016-10-31T03:36:28.100Z,10.15
2016-10-31T03:40:05.556Z,10.09
2016-10-31T03:43:41.896Z,9.94
2016-10-31T03:47:18.543Z,9.8
2016-10-31T03:50:55.912Z,9.69
2016-10-31T03:54:32.571Z,9.57
2016-10-31T03:58:09.539Z,9.48
2016-10-31T04:01:47.101Z,9.42
2016-10-31T04:05:23.476Z,9.33
2016-10-31T04:09:00.998Z,9.28
2016-10-31T04:12:37.885Z,9.3
2016-10-31T04:16:14.546Z,9.35
2016-10-31T04:19:51.797Z,9.35
2016-10-31T04:23:29.275Z,9.37
2016-10-31T04:27:05.642Z,9.4
2016-10-31T04:30:42.997Z,9.39
2016-10-31T04:34:19.531Z,9.53
2016-10-31T04:37:59.771Z,9.6
2016-10-31T04:41:35.810Z,9.65
2016-10-31T04:45:12.504Z,9.67
2016-10-31T04:48:49.813Z,9.72
2016-10-31T04:52:26.610Z,9.69
2016-10-31T04:56:03.966Z,9.67
2016-10-31T04:59:40.571Z,9.69
2016-10-31T05:03:17.526Z,9.69
2016-10-31T05:06:54.382Z,9.71
2016-10-31T05:10:31.627Z,9.78
2016-10-31T05:14:15.659Z,9.82
2016-10-31T05:17:51.595Z,9.82
2016-10-31T05:21:28.237Z,9.82
2016-10-31T05:25:08.534Z,9.82
2016-10-31T05:28:46.068Z,9.78
2016-10-31T05:32:45.897Z,9.63
2016-10-31T05:36:21.919Z,9.67
2016-10-31T05:39:58.764Z,9.78
2016-10-31T05:43:35.772Z,9.95
2016-10-31T05:47:12.578Z,10.07
2016-10-31T05:50:49.446Z,10.13
2016-10-31T05:54:26.828Z,10.15
2016-10-31T05:58:03.414Z,10.09
2016-10-31T06:01:41.097Z,10.05
2016-10-31T06:05:17.324Z,10.06
2016-10-31T06:08:54.419Z,10.06
2016-10-31T06:12:31.432Z,10.1
2016-10-31T06:16:08.357Z,10.19
2016-10-31T06:19:45.600Z,10.24
2016-10-31T06:28:06.864Z,10.41
2016-10-31T06:31:42.811Z,10.51
2016-10-31T06:35:18.584Z,10.59
2016-10-31T06:38:54.146Z,10.62
2016-10-31T06:42:30.167Z,10.66
2016-10-31T06:46:18.779Z,10.62
2016-10-31T06:50:14.336Z,10.54
2016-10-31T06:53:51.610Z,10.63
2016-10-31T06:57:28.882Z,10.74
2016-10-31T07:01:05.519Z,10.72
2016-10-31T07:04:42.885Z,10.63
2016-10-31T07:08:19.378Z,10.68
2016-10-31T07:11:56.694Z,10.78
2016-10-31T07:15:33.475Z,10.84
2016-10-31T07:19:10.859Z,10.84
2016-10-31T07:22:47.319Z,10.88
2016-10-31T07:26:24.636Z,10.93
2016-10-31T07:30:01.350Z,10.96
2016-10-31T07:33:38.543Z,11.06
2016-10-31T07:37:15.570Z,11.11
2016-10-31T07:40:52.830Z,11.25
2016-10-31T07:44:29.370Z,11.32
2016-10-31T07:48:06.638Z,11.37
2016-10-31T07:51:43.185Z,11.44
2016-10-31T07:55:20.393Z,11.47
2016-10-31T07:58:57.719Z,11.54
2016-10-31T08:02:35.073Z,11.6
2016-10-31T08:06:12.695Z,11.71
2016-10-31T08:09:48.836Z,11.81
2016-10-31T08:13:25.243Z,11.9
2016-10-31T08:17:02.532Z,11.96
2016-10-31T08:20:39.293Z,12.11
2016-10-31T08:24:16.306Z,12.23
2016-10-31T08:27:53.323Z,12.34
2016-10-31T08:31:30.267Z,12.44
2016-10-31T08:35:07.670Z,12.54
2016-10-31T08:38:44.158Z,12.63
2016-10-31T08:42:21.192Z,12.73
2016-10-31T08:45:58.747Z,12.87
2016-10-31T08:49:35.343Z,12.97
2016-10-31T08:53:12.549Z,13.05
2016-10-31T08:56:50.144Z,13.14
2016-10-31T09:00:26.177Z,13.24
2016-10-31T09:04:03.877Z,13.32
2016-10-31T09:07:40.909Z,13.37
2016-10-31T09:11:18.404Z,13.41
2016-10-31T09:14:54.991Z,13.34
2016-10-31T09:18:32.140Z,13.42
2016-10-31T09:22:08.293Z,13.54
2016-10-31T09:25:45.526Z,13.68
2016-10-31T09:29:22.509Z,13.86
2016-10-31T09:32:59.730Z,13.98
2016-10-31T09:36:36.736Z,14.08
2016-10-31T09:40:13.143Z,14.21
2016-10-31T09:43:50.168Z,14.33
2016-10-31T09:47:27.683Z,14.38
2016-10-31T09:51:04.115Z,14.36
2016-10-31T09:54:41.528Z,14.3
2016-10-31T09:58:18.576Z,14.41
2016-10-31T10:01:55.279Z,14.49
2016-10-31T10:05:32.279Z,14.6
2016-10-31T10:09:10.303Z,14.7
2016-10-31T10:12:46.266Z,14.74
2016-10-31T10:16:24.133Z,14.74
2016-10-31T10:20:33.032Z,14.86
2016-10-31T10:24:08.596Z,15
2016-10-31T10:27:45.223Z,15.04
2016-10-31T10:31:22.497Z,15.1
2016-10-31T10:34:59.971Z,15.15
2016-10-31T10:38:36.030Z,15.2
2016-10-31T10:42:13.413Z,15.24
2016-10-31T10:45:50.091Z,15.31
2016-10-31T10:49:27.055Z,15.39
2016-10-31T10:58:17.492Z,15.53
2016-10-31T11:01:53.806Z,15.49
2016-10-31T11:05:29.332Z,15.47
2016-10-31T11:09:05.376Z,15.52
2016-10-31T11:17:24.316Z,15.61
2016-10-31T11:21:00.212Z,15.6
2016-10-31T11:24:36.029Z,15.57
2016-10-31T11:28:12.447Z,15.63
2016-10-31T11:31:49.663Z,15.7
2016-10-31T11:35:26.053Z,15.77
2016-10-31T11:39:03.546Z,15.76
2016-10-31T11:42:40.495Z,15.8
2016-10-31T11:46:17.214Z,15.81
2016-10-31T11:49:53.887Z,15.88
2016-10-31T11:53:30.955Z,15.93
2016-10-31T11:57:08.250Z,16.05
2016-10-31T12:00:45.614Z,16.1
2016-10-31T12:04:21.921Z,16.1
2016-10-31T12:07:59.281Z,16
2016-10-31T12:11:36.184Z,15.92
2016-10-31T12:15:13.647Z,16.02
2016-10-31T12:18:50.940Z,16.05
2016-10-31T12:22:27.025Z,16.06
2016-10-31T12:26:04.629Z,16.09
2016-10-31T12:29:40.881Z,16.17
2016-10-31T12:33:18.491Z,16.17
2016-10-31T12:36:55.500Z,16.19
2016-10-31T12:40:32.149Z,16.23
2016-10-31T12:44:09.424Z,16.29
2016-10-31T12:47:45.910Z,16.39
2016-10-31T12:51:23.245Z,16.53
2016-10-31T12:55:00.531Z,16.51
2016-10-31T12:58:37.781Z,16.5
2016-10-31T13:02:14.544Z,16.54
2016-10-31T13:05:51.095Z,16.54
2016-10-31T13:09:27.778Z,16.55
2016-10-31T13:13:05.091Z,16.62
2016-10-31T13:16:42.423Z,16.72
2016-10-31T13:20:19.415Z,16.47
2016-10-31T13:23:55.979Z,16.46
2016-10-31T13:31:45.807Z,16.56
2016-10-31T13:35:21.414Z,16.66
2016-10-31T13:38:57.798Z,16.75
2016-10-31T13:42:33.346Z,16.83
2016-10-31T13:46:09.735Z,16.7
2016-10-31T13:49:45.896Z,16.69
2016-10-31T13:53:23.261Z,16.75
2016-10-31T13:57:00.230Z,16.79
2016-10-31T14:00:37.193Z,16.72
2016-10-31T14:04:14.852Z,16.73
2016-10-31T14:07:50.968Z,16.79
2016-10-31T14:11:27.921Z,16.77
2016-10-31T14:15:04.904Z,16.74
2016-10-31T14:18:41.969Z,16.75
2016-10-31T14:22:19.555Z,16.78
2016-10-31T14:25:55.930Z,16.71
2016-10-31T14:29:32.857Z,16.62
2016-10-31T14:33:10.012Z,16.58
2016-10-31T14:36:47.583Z,16.59
2016-10-31T14:40:23.838Z,16.63
2016-10-31T14:44:00.868Z,16.66
2016-10-31T14:47:37.909Z,16.62
2016-10-31T14:51:14.863Z,16.47
2016-10-31T14:54:51.953Z,16.46
2016-10-31T14:58:28.981Z,16.33
2016-10-31T15:02:06.372Z,16.32
2016-10-31T15:05:42.806Z,16.38
2016-10-31T15:09:19.784Z,16.45
2016-10-31T15:16:41.907Z,16.41
2016-10-31T15:20:41.700Z,16.45
2016-10-31T15:24:19.032Z,16.47
2016-10-31T15:27:56.347Z,16.53
2016-10-31T15:31:33.564Z,16.54
2016-10-31T15:35:10.156Z,16.51
2016-10-31T15:38:46.968Z,16.46
2016-10-31T15:42:25.237Z,16.36
2016-10-31T15:46:01.960Z,16.27
2016-10-31T15:50:14.814Z,22.6
2016-10-31T16:01:01.835Z,23.26
2016-10-31T16:04:17.200Z,23.3
2016-10-31T16:06:09.715Z,21.29
2016-10-31T16:09:48.021Z,15.56
2016-10-31T16:13:29.766Z,14.92
2016-10-31T16:17:06.389Z,14.98
2016-10-31T16:20:37.946Z,15.11
2016-10-31T16:24:15.153Z,15.22
2016-10-31T16:27:51.987Z,15.25
2016-10-31T16:32:02.011Z,15.19
2016-10-31T16:35:38.286Z,14.96
2016-10-31T16:39:15.112Z,14.76
2016-10-31T16:42:52.480Z,14.72
2016-10-31T16:46:29.295Z,14.7
2016-10-31T16:50:05.121Z,14.67
2016-10-31T16:53:41.777Z,14.67
2016-10-31T16:57:18.990Z,14.56
2016-10-31T17:00:56.279Z,14.46
2016-10-31T17:04:32.847Z,14.36
2016-10-31T17:08:09.633Z,14.13
2016-10-31T17:11:47.408Z,13.94
2016-10-31T17:15:24.454Z,13.85
2016-10-31T17:19:00.709Z,13.71
2016-10-31T17:22:37.877Z,13.53
2016-10-31T17:26:14.857Z,13.32
2016-10-31T17:29:51.640Z,13.16
2016-10-31T17:33:30.996Z,13.02
2016-10-31T17:37:07.078Z,12.9
2016-10-31T17:40:45.363Z,12.73
2016-10-31T17:44:26.586Z,12.55
2016-10-31T17:48:28.931Z,12.41
2016-10-31T17:52:07.069Z,12.3
2016-10-31T17:55:44.213Z,12.2
2016-10-31T17:59:25.188Z,12.15
2016-10-31T18:03:02.007Z,12.13
2016-10-31T18:06:38.299Z,12.08
2016-10-31T18:10:09.476Z,12.09
2016-10-31T18:13:46.752Z,12.1
2016-10-31T18:17:26.222Z,12.09
2016-10-31T18:21:03.706Z,11.99
2016-10-31T18:24:41.261Z,11.89
2016-10-31T18:28:20.897Z,11.76
2016-10-31T18:31:58.148Z,11.64
2016-10-31T18:36:01.022Z,11.57
2016-10-31T18:39:38.520Z,11.48
2016-10-31T18:43:16.348Z,11.35
2016-10-31T18:46:54.155Z,11.3
2016-10-31T18:51:03.649Z,11.26
2016-10-31T18:54:40.412Z,11.2
2016-10-31T18:58:16.817Z,11.07
2016-10-31T19:01:53.353Z,10.96
2016-10-31T19:05:30.217Z,10.91
2016-10-31T19:09:06.885Z,10.84
2016-10-31T19:12:43.530Z,10.77
2016-10-31T19:16:19.967Z,10.64
2016-10-31T19:19:56.372Z,10.57
2016-10-31T19:23:32.263Z,10.55
2016-10-31T19:27:12.874Z,10.53
2016-10-31T19:30:52.328Z,10.52
2016-10-31T19:34:53.385Z,10.52
2016-10-31T19:38:30.757Z,10.5
2016-10-31T19:42:07.681Z,10.48
2016-10-31T19:45:45.369Z,10.52
2016-10-31T19:49:22.214Z,10.59
2016-10-31T19:53:00.491Z,10.65
2016-10-31T19:56:37.082Z,10.65
2016-10-31T20:00:13.802Z,10.53
2016-10-31T20:03:50.727Z,10.46
2016-10-31T20:07:26.941Z,10.41
2016-10-31T20:11:03.617Z,10.35
2016-10-31T20:14:40.398Z,10.35
2016-10-31T20:17:57.641Z,10.38
2016-10-31T20:21:34.126Z,10.39
2016-10-31T20:25:10.743Z,10.35
2016-10-31T20:28:47.360Z,10.31
2016-10-31T20:32:23.538Z,10.35
2016-10-31T20:36:00.428Z,10.52
2016-10-31T20:39:36.299Z,10.67
2016-10-31T20:43:13.001Z,10.82
2016-10-31T20:46:48.917Z,10.93
2016-10-31T20:50:25.339Z,10.91
2016-10-31T20:54:01.422Z,10.96
2016-10-31T20:57:37.796Z,10.93
2016-10-31T21:01:14.628Z,10.95
2016-10-31T21:04:51.638Z,10.91
2016-10-31T21:08:28.496Z,10.88
2016-10-31T21:12:06.319Z,10.88
2016-10-31T21:15:42.456Z,10.94
2016-10-31T21:19:19.368Z,10.94
2016-10-31T21:22:56.614Z,10.9
2016-10-31T21:26:33.632Z,10.87
2016-10-31T21:30:10.499Z,10.85
2016-10-31T21:33:47.276Z,10.86
2016-10-31T21:37:25.155Z,10.87
2016-10-31T21:41:01.500Z,10.87
2016-10-31T21:44:38.583Z,10.85
2016-10-31T21:48:15.624Z,10.88
2016-10-31T21:51:52.893Z,10.78
2016-10-31T21:55:30.991Z,10.68
2016-10-31T21:59:07.322Z,10.58
2016-10-31T22:02:50.229Z,10.59
2016-10-31T22:06:26.691Z,10.63
2016-10-31T22:10:07.654Z,10.67
2016-10-31T22:14:07.574Z,10.69
2016-10-31T22:17:43.897Z,10.6
2016-10-31T22:21:20.016Z,10.63
2016-10-31T22:24:57.083Z,10.67
2016-10-31T22:28:34.734Z,10.64
2016-10-31T22:32:14.088Z,10.55
2016-10-31T22:35:50.433Z,10.51
2016-10-31T22:39:26.718Z,10.41
2016-10-31T22:43:03.623Z,10.31
2016-10-31T22:46:43.351Z,10.25
2016-10-31T22:50:20.724Z,10.25
2016-10-31T22:53:57.943Z,10.21
2016-10-31T22:57:36.027Z,10.19
2016-10-31T23:01:13.656Z,10.21
2016-10-31T23:04:49.840Z,10.22
2016-10-31T23:08:26.312Z,10.21
2016-10-31T23:12:04.321Z,10.09
2016-10-31T23:15:41.128Z,10.03
2016-10-31T23:19:18.054Z,10.07
2016-10-31T23:22:55.761Z,10.11
2016-10-31T23:26:33.105Z,10.14
2016-10-31T23:30:09.366Z,10.16
2016-10-31T23:33:46.061Z,10.23
2016-10-31T23:37:22.386Z,10.27
2016-10-31T23:40:58.912Z,10.29
2016-10-31T23:44:36.434Z,10.35
2016-10-31T23:48:12.518Z,10.41
2016-10-31T23:51:50.045Z,10.41
2016-10-31T23:55:26.231Z,10.4
2016-10-31T23:59:08.984Z,10.32
